createdAt,value
2019-05-02T03:31:23.883Z,1007.2
2019-05-02T03:41:38.484Z,1007.2
2019-05-02T03:52:02.378Z,1007.1
2019-05-02T04:02:13.827Z,1007.1
2019-05-02T04:12:23.496Z,1006.9
2019-05-02T04:22:35.467Z,1006.9
2019-05-02T04:32:49.903Z,1006.8
2019-05-02T04:43:02.156Z,1006.8
2019-05-02T04:53:11.478Z,1006.9
2019-05-02T05:03:24.959Z,1006.7
2019-05-02T05:13:38.719Z,1006.7
2019-05-02T05:23:56.665Z,1006.7
2019-05-02T05:34:03.399Z,1006.8
2019-05-02T05:44:18.002Z,1006.8
2019-05-02T05:54:28.398Z,1006.8
2019-05-02T06:04:41.507Z,1006.7
2019-05-02T06:15:26.535Z,1006.7
2019-05-02T06:25:42.506Z,1006.6
2019-05-02T06:36:00.314Z,1006.5
2019-05-02T06:46:14.912Z,1006.5
2019-05-02T06:56:16.839Z,1006.3
2019-05-02T07:06:35.201Z,1006.3
2019-05-02T07:16:43.138Z,1006.4
2019-05-02T07:26:56.935Z,1006.2
2019-05-02T07:37:08.468Z,1006.2
2019-05-02T07:47:29.128Z,1006.4
2019-05-02T07:57:42.998Z,1006.4
2019-05-02T08:08:31.779Z,1006.4
2019-05-02T08:18:48.635Z,1006.6
2019-05-02T08:29:05.384Z,1006.4
2019-05-02T08:42:47.984Z,1006.3
2019-05-02T08:53:02.318Z,1006.2
2019-05-02T09:03:16.211Z,1006.1
2019-05-02T09:14:02.188Z,1006.0
2019-05-02T09:24:18.811Z,1005.9
2019-05-02T09:35:01.295Z,1005.7
2019-05-02T09:45:12.229Z,1005.7
2019-05-02T09:58:02.597Z,1005.4
2019-05-02T10:08:18.903Z,1005.1
2019-05-02T10:18:32.843Z,1005.0
2019-05-02T10:28:49.134Z,1004.9
2019-05-02T10:39:28.314Z,1004.8
2019-05-02T10:49:42.482Z,1004.6
2019-05-02T10:59:52.612Z,1004.6
2019-05-02T11:10:06.659Z,1004.6
2019-05-02T11:20:15.181Z,1004.3
2019-05-02T17:49:52.868Z,1003.4
2019-05-02T18:00:07.442Z,1003.4
2019-05-02T18:12:42.788Z,1003.6
2019-05-02T18:46:47.422Z,1003.9
2019-05-02T18:58:22.584Z,1003.9
2019-05-02T19:09:12.728Z,1004.0
2019-05-02T19:19:32.323Z,1004.1
2019-05-02T19:29:48.229Z,1004.2
2019-05-02T19:40:39.451Z,1004.3
2019-05-02T20:11:42.479Z,1004.5
2019-05-02T20:22:36.291Z,1004.5
2019-05-02T20:33:32.585Z,1004.9
2019-05-02T20:44:26.139Z,1004.9
2019-05-02T20:55:12.273Z,1005.1
2019-05-02T21:06:02.913Z,1005.2
2019-05-02T21:16:51.816Z,1005.2
2019-05-02T21:27:21.801Z,1005.3
2019-05-02T21:37:42.477Z,1005.4
2019-05-02T21:47:54.623Z,1005.4
2019-05-02T21:58:09.565Z,1005.6
2019-05-02T22:10:42.570Z,1005.6
2019-05-02T22:20:53.949Z,1005.5
2019-05-02T22:31:14.408Z,1005.8
2019-05-02T22:42:04.229Z,1005.8
2019-05-02T22:52:12.225Z,1005.9
2019-05-02T23:02:59.381Z,1005.9
2019-05-02T23:13:34.058Z,1006.0
2019-05-02T23:23:52.365Z,1005.9
2019-05-02T23:35:47.866Z,1006.0
2019-05-02T23:46:02.300Z,1006.0
2019-05-02T23:56:15.066Z,1006.0
